VIV4121 MMHO-MMMY
Flight info
| Callsign | VIV4121 |
|---|---|
| Flight time | N/A |
| Altitude | 39000 |
| Route | HMO5B HMO DCT IGTAN DCT SUTIL DCT ETLEP DCT SLW SLW1B |
| Aircraft | A20N/M-SDE2E3FGHIRWXY/LB1 |
Departure
| Time | 2026-04-22 03:53 |
|---|---|
| Airport | General Ignacio L. Pesqueira International Airport (MMHO) |
Arrival
| Time | N/A |
|---|---|
| Airport | Monterrey International Airport (MMMY) |
| Time | Latitude | Longitude | Altitude | Speed | Heading |
|---|---|---|---|---|---|
| 2026-04-22 02:46 | 29.09031 | -111.05309 | 636 ft | 0 kts | 150° |
| 2026-04-22 03:32 | 29.09034 | -111.05311 | 636 ft | 2 kts | 150° |
| 2026-04-22 03:32 | 29.09047 | -111.05320 | 636 ft | 2 kts | 150° |
| 2026-04-22 03:32 | 29.09061 | -111.05328 | 635 ft | 2 kts | 150° |
| 2026-04-22 03:33 | 29.09073 | -111.05339 | 635 ft | 2 kts | 121° |
| 2026-04-22 03:33 | 29.09078 | -111.05355 | 635 ft | 2 kts | 91° |
| 2026-04-22 03:33 | 29.09075 | -111.05371 | 635 ft | 2 kts | 59° |
| 2026-04-22 03:33 | 29.09066 | -111.05386 | 635 ft | 2 kts | 61° |
| 2026-04-22 03:34 | 29.09059 | -111.05401 | 635 ft | 2 kts | 59° |
| 2026-04-22 03:34 | 29.09055 | -111.05409 | 635 ft | 0 kts | 59° |
| 2026-04-22 03:40 | 29.09057 | -111.05404 | 634 ft | 1 kts | 59° |
| 2026-04-22 03:41 | 29.09065 | -111.05389 | 634 ft | 2 kts | 59° |
| 2026-04-22 03:41 | 29.09078 | -111.05365 | 635 ft | 4 kts | 60° |
| 2026-04-22 03:41 | 29.09094 | -111.05333 | 635 ft | 5 kts | 60° |
| 2026-04-22 03:41 | 29.09115 | -111.05294 | 635 ft | 6 kts | 59° |
| 2026-04-22 03:42 | 29.09139 | -111.05248 | 636 ft | 7 kts | 60° |
| 2026-04-22 03:42 | 29.09166 | -111.05198 | 636 ft | 6 kts | 58° |
| 2026-04-22 03:42 | 29.09189 | -111.05154 | 637 ft | 6 kts | 59° |
| 2026-04-22 03:42 | 29.09215 | -111.05106 | 637 ft | 7 kts | 57° |
| 2026-04-22 03:43 | 29.09244 | -111.05052 | 638 ft | 8 kts | 59° |
| 2026-04-22 03:43 | 29.09274 | -111.04993 | 639 ft | 8 kts | 60° |
| 2026-04-22 03:43 | 29.09297 | -111.04953 | 639 ft | 5 kts | 58° |
| 2026-04-22 03:43 | 29.09319 | -111.04914 | 640 ft | 6 kts | 46° |
| 2026-04-22 03:44 | 29.09358 | -111.04926 | 640 ft | 7 kts | 319° |
| 2026-04-22 03:44 | 29.09374 | -111.04947 | 640 ft | 0 kts | 317° |
| 2026-04-22 03:47 | 29.09375 | -111.04947 | 640 ft | 0 kts | 317° |
| 2026-04-22 03:47 | 29.09379 | -111.04952 | 640 ft | 1 kts | 317° |
| 2026-04-22 03:48 | 29.09395 | -111.04967 | 640 ft | 3 kts | 317° |
| 2026-04-22 03:48 | 29.09420 | -111.04995 | 639 ft | 6 kts | 317° |
| 2026-04-22 03:48 | 29.09458 | -111.05009 | 639 ft | 6 kts | 39° |
| 2026-04-22 03:48 | 29.09486 | -111.04964 | 640 ft | 4 kts | 59° |
| 2026-04-22 03:49 | 29.09504 | -111.04931 | 641 ft | 5 kts | 59° |
| 2026-04-22 03:49 | 29.09532 | -111.04878 | 641 ft | 9 kts | 58° |
| 2026-04-22 03:49 | 29.09571 | -111.04803 | 642 ft | 11 kts | 57° |
| 2026-04-22 03:49 | 29.09616 | -111.04719 | 643 ft | 13 kts | 58° |
| 2026-04-22 03:50 | 29.09668 | -111.04623 | 644 ft | 14 kts | 59° |
| 2026-04-22 03:50 | 29.09721 | -111.04522 | 645 ft | 14 kts | 58° |
| 2026-04-22 03:50 | 29.09775 | -111.04421 | 647 ft | 14 kts | 59° |
| 2026-04-22 03:50 | 29.09830 | -111.04330 | 648 ft | 11 kts | 67° |
| 2026-04-22 03:51 | 29.09837 | -111.04318 | 648 ft | 1 kts | 45° |
| 2026-04-22 03:51 | 29.09846 | -111.04308 | 648 ft | 3 kts | 46° |
| 2026-04-22 03:51 | 29.09864 | -111.04276 | 648 ft | 4 kts | 81° |
| 2026-04-22 03:51 | 29.09845 | -111.04288 | 648 ft | 0 kts | 241° |
| 2026-04-22 03:52 | 29.09820 | -111.04340 | 648 ft | 36 kts | 239° |
| 2026-04-22 03:52 | 29.09545 | -111.04854 | 642 ft | 113 kts | 239° |
| 2026-04-22 03:53 | 29.09038 | -111.05836 | 679 ft | 167 kts | 240° |
| 2026-04-22 03:53 | 29.08406 | -111.07053 | 1055 ft | 188 kts | 239° |
| 2026-04-22 03:53 | 29.07741 | -111.08293 | 1996 ft | 181 kts | 238° |
| 2026-04-22 03:53 | 29.07108 | -111.09447 | 2867 ft | 177 kts | 237° |
| 2026-04-22 03:54 | 29.06430 | -111.10671 | 3364 ft | 191 kts | 237° |
| 2026-04-22 03:54 | 29.05687 | -111.12009 | 3800 ft | 208 kts | 236° |
| 2026-04-22 03:54 | 29.04868 | -111.13480 | 4154 ft | 233 kts | 236° |
| 2026-04-22 03:54 | 29.03968 | -111.15098 | 4697 ft | 253 kts | 236° |
| 2026-04-22 03:55 | 29.02989 | -111.16859 | 5305 ft | 270 kts | 236° |
| 2026-04-22 03:55 | 29.01986 | -111.18665 | 6130 ft | 277 kts | 236° |
| 2026-04-22 03:55 | 29.01013 | -111.20568 | 7074 ft | 282 kts | 246° |
| 2026-04-22 03:55 | 29.00689 | -111.22776 | 8035 ft | 289 kts | 272° |
| 2026-04-22 03:56 | 29.01224 | -111.24963 | 9010 ft | 294 kts | 297° |
| 2026-04-22 03:56 | 29.02521 | -111.26732 | 9945 ft | 300 kts | 322° |
| 2026-04-22 03:56 | 29.04431 | -111.27756 | 10775 ft | 311 kts | 347° |
| 2026-04-22 03:56 | 29.06614 | -111.27715 | 11402 ft | 327 kts | 15° |
| 2026-04-22 03:57 | 29.08603 | -111.26489 | 12213 ft | 334 kts | 43° |
| 2026-04-22 03:57 | 29.09906 | -111.24294 | 13114 ft | 337 kts | 71° |
| 2026-04-22 03:57 | 29.10220 | -111.21690 | 13942 ft | 339 kts | 93° |
| 2026-04-22 03:57 | 29.10102 | -111.18974 | 14664 ft | 346 kts | 95° |
| 2026-04-22 03:58 | 29.09953 | -111.16209 | 15407 ft | 353 kts | 95° |
| 2026-04-22 03:58 | 29.09824 | -111.13426 | 16194 ft | 358 kts | 94° |
| 2026-04-22 03:58 | 29.09716 | -111.10572 | 16968 ft | 364 kts | 94° |
| 2026-04-22 03:58 | 29.09619 | -111.07674 | 17738 ft | 369 kts | 94° |
| 2026-04-22 03:59 | 29.09522 | -111.04710 | 18490 ft | 375 kts | 94° |
| 2026-04-22 03:59 | 29.09375 | -111.01732 | 19214 ft | 381 kts | 95° |
| 2026-04-22 03:59 | 29.09198 | -110.98702 | 19939 ft | 386 kts | 95° |
| 2026-04-22 03:59 | 29.09016 | -110.95628 | 20661 ft | 392 kts | 95° |
| 2026-04-22 04:00 | 29.08835 | -110.92538 | 21327 ft | 398 kts | 95° |
| 2026-04-22 04:00 | 29.08653 | -110.89370 | 22012 ft | 403 kts | 94° |
| 2026-04-22 04:00 | 29.08470 | -110.86183 | 22691 ft | 407 kts | 94° |
| 2026-04-22 04:00 | 29.08283 | -110.82924 | 23359 ft | 412 kts | 94° |
| 2026-04-22 04:01 | 29.08096 | -110.79658 | 24003 ft | 417 kts | 94° |
| 2026-04-22 04:01 | 29.07906 | -110.76345 | 24605 ft | 423 kts | 94° |
| 2026-04-22 04:01 | 29.07711 | -110.72960 | 25185 ft | 428 kts | 94° |
| 2026-04-22 04:01 | 29.07517 | -110.69601 | 25781 ft | 432 kts | 94° |
| 2026-04-22 04:02 | 29.07315 | -110.66137 | 26371 ft | 436 kts | 94° |
| 2026-04-22 04:02 | 29.07115 | -110.62698 | 26902 ft | 441 kts | 94° |
| 2026-04-22 04:02 | 29.06910 | -110.59198 | 27411 ft | 446 kts | 94° |
| 2026-04-22 04:02 | 29.06698 | -110.55609 | 27922 ft | 451 kts | 93° |
| 2026-04-22 04:03 | 29.06489 | -110.52073 | 28411 ft | 456 kts | 93° |
| 2026-04-22 04:03 | 29.06273 | -110.48438 | 28912 ft | 460 kts | 93° |
| 2026-04-22 04:03 | 29.06056 | -110.44804 | 29399 ft | 464 kts | 93° |
| 2026-04-22 04:03 | 29.05835 | -110.41082 | 29911 ft | 468 kts | 93° |
| 2026-04-22 04:04 | 29.05614 | -110.37421 | 30400 ft | 471 kts | 93° |
| 2026-04-22 04:04 | 29.05386 | -110.33645 | 30881 ft | 474 kts | 94° |
| 2026-04-22 04:04 | 29.05159 | -110.29876 | 31325 ft | 478 kts | 94° |
| 2026-04-22 04:04 | 29.04932 | -110.26122 | 31751 ft | 481 kts | 94° |
| 2026-04-22 04:05 | 29.04697 | -110.22289 | 32179 ft | 484 kts | 94° |
| 2026-04-22 04:05 | 29.04463 | -110.18493 | 32665 ft | 484 kts | 94° |
| 2026-04-22 04:05 | 29.04225 | -110.14640 | 33233 ft | 482 kts | 94° |
| 2026-04-22 04:05 | 29.03989 | -110.10863 | 33800 ft | 480 kts | 94° |
| 2026-04-22 04:06 | 29.03754 | -110.07091 | 34343 ft | 479 kts | 94° |
| 2026-04-22 04:06 | 29.03517 | -110.03280 | 34850 ft | 478 kts | 94° |
| 2026-04-22 04:06 | 29.03269 | -109.99503 | 35305 ft | 478 kts | 95° |
| 2026-04-22 04:06 | 29.02865 | -109.95755 | 35764 ft | 477 kts | 99° |
| 2026-04-22 04:07 | 29.02253 | -109.92073 | 36193 ft | 476 kts | 103° |
| 2026-04-22 04:07 | 29.01416 | -109.88416 | 36585 ft | 475 kts | 108° |
| 2026-04-22 04:07 | 29.00380 | -109.84885 | 36961 ft | 475 kts | 112° |
| 2026-04-22 04:07 | 28.99138 | -109.81374 | 37306 ft | 475 kts | 114° |
| 2026-04-22 04:08 | 28.97841 | -109.77896 | 37630 ft | 476 kts | 115° |
| 2026-04-22 04:08 | 28.96548 | -109.74452 | 37909 ft | 478 kts | 115° |
| 2026-04-22 04:08 | 28.95241 | -109.70956 | 38153 ft | 480 kts | 115° |
| 2026-04-22 04:08 | 28.93942 | -109.67470 | 38416 ft | 482 kts | 115° |
| 2026-04-22 04:09 | 28.92635 | -109.63947 | 38681 ft | 483 kts | 115° |
| 2026-04-22 04:09 | 28.91336 | -109.60437 | 38956 ft | 484 kts | 115° |
| 2026-04-22 04:09 | 28.90020 | -109.56882 | 39140 ft | 486 kts | 115° |
| 2026-04-22 04:09 | 28.88698 | -109.53342 | 39143 ft | 487 kts | 115° |
| 2026-04-22 04:10 | 28.86028 | -109.46233 | 39150 ft | 488 kts | 115° |
| 2026-04-22 04:10 | 28.83389 | -109.39162 | 39159 ft | 488 kts | 115° |
| 2026-04-22 04:11 | 28.80736 | -109.32031 | 39162 ft | 487 kts | 115° |
| 2026-04-22 04:11 | 28.78109 | -109.24960 | 39175 ft | 486 kts | 115° |
| 2026-04-22 04:12 | 28.75477 | -109.17899 | 39199 ft | 485 kts | 115° |
| 2026-04-22 04:12 | 28.72837 | -109.10851 | 39236 ft | 486 kts | 115° |
| 2026-04-22 04:13 | 28.70190 | -109.03787 | 39266 ft | 485 kts | 115° |
| 2026-04-22 04:13 | 28.67541 | -108.96742 | 39291 ft | 486 kts | 115° |
| 2026-04-22 04:14 | 28.64892 | -108.89703 | 39285 ft | 486 kts | 115° |
| 2026-04-22 04:14 | 28.62230 | -108.82652 | 39285 ft | 486 kts | 115° |
| 2026-04-22 04:15 | 28.59560 | -108.75590 | 39275 ft | 487 kts | 115° |
| 2026-04-22 04:15 | 28.56874 | -108.68501 | 39285 ft | 487 kts | 115° |
| 2026-04-22 04:16 | 28.52872 | -108.57953 | 39320 ft | 487 kts | 115° |
| 2026-04-22 04:17 | 28.50177 | -108.50874 | 39344 ft | 488 kts | 115° |
| 2026-04-22 04:17 | 28.47489 | -108.43823 | 39366 ft | 488 kts | 115° |
| 2026-04-22 04:18 | 28.44801 | -108.36784 | 39368 ft | 488 kts | 115° |
| 2026-04-22 04:18 | 28.42093 | -108.29681 | 39382 ft | 489 kts | 115° |
| 2026-04-22 04:19 | 28.39406 | -108.22644 | 39400 ft | 489 kts | 115° |
| 2026-04-22 04:19 | 28.36695 | -108.15575 | 39385 ft | 489 kts | 115° |
| 2026-04-22 04:20 | 28.33988 | -108.08540 | 39393 ft | 489 kts | 115° |
| 2026-04-22 04:20 | 28.31269 | -108.01484 | 39422 ft | 489 kts | 115° |
| 2026-04-22 04:21 | 28.28547 | -107.94436 | 39439 ft | 489 kts | 115° |
| 2026-04-22 04:21 | 28.25823 | -107.87388 | 39449 ft | 490 kts | 115° |
| 2026-04-22 04:22 | 28.23072 | -107.80296 | 39468 ft | 491 kts | 115° |
| 2026-04-22 04:22 | 28.20329 | -107.73223 | 39477 ft | 491 kts | 115° |
| 2026-04-22 04:23 | 28.17593 | -107.66196 | 39475 ft | 491 kts | 115° |
| 2026-04-22 04:23 | 28.14831 | -107.59106 | 39461 ft | 491 kts | 115° |
| 2026-04-22 04:24 | 28.12076 | -107.52045 | 39462 ft | 491 kts | 115° |
| 2026-04-22 04:24 | 28.09316 | -107.44988 | 39455 ft | 491 kts | 115° |
| 2026-04-22 04:25 | 28.06565 | -107.37968 | 39458 ft | 491 kts | 115° |
| 2026-04-22 04:25 | 28.03796 | -107.30900 | 39461 ft | 491 kts | 115° |
| 2026-04-22 04:26 | 28.01047 | -107.23878 | 39455 ft | 491 kts | 115° |
| 2026-04-22 04:26 | 27.98274 | -107.16830 | 39446 ft | 490 kts | 115° |
| 2026-04-22 04:27 | 27.95512 | -107.09824 | 39447 ft | 491 kts | 115° |
| 2026-04-22 04:27 | 27.92735 | -107.02795 | 39436 ft | 491 kts | 115° |
| 2026-04-22 04:28 | 27.89932 | -106.95713 | 39430 ft | 491 kts | 115° |
| 2026-04-22 04:28 | 27.87132 | -106.88711 | 39408 ft | 490 kts | 115° |
| 2026-04-22 04:29 | 27.84252 | -106.81744 | 39399 ft | 491 kts | 117° |
| 2026-04-22 04:29 | 27.81228 | -106.74856 | 39395 ft | 491 kts | 117° |
| 2026-04-22 04:30 | 27.78216 | -106.67973 | 39377 ft | 491 kts | 117° |
| 2026-04-22 04:30 | 27.75210 | -106.61063 | 39373 ft | 489 kts | 117° |
| 2026-04-22 04:31 | 27.72223 | -106.54193 | 39390 ft | 490 kts | 117° |
| 2026-04-22 04:31 | 27.69217 | -106.47289 | 39374 ft | 488 kts | 117° |
| 2026-04-22 04:32 | 27.66233 | -106.40444 | 39373 ft | 489 kts | 117° |
| 2026-04-22 04:32 | 27.63240 | -106.33591 | 39354 ft | 489 kts | 118° |
| 2026-04-22 04:33 | 27.60253 | -106.26730 | 39329 ft | 488 kts | 118° |
| 2026-04-22 04:33 | 27.57256 | -106.19875 | 39335 ft | 488 kts | 118° |
| 2026-04-22 04:34 | 27.54258 | -106.13040 | 39327 ft | 488 kts | 118° |
| 2026-04-22 04:34 | 27.51253 | -106.06205 | 39330 ft | 487 kts | 118° |
| 2026-04-22 04:35 | 27.48241 | -105.99365 | 39322 ft | 487 kts | 118° |
| 2026-04-22 04:35 | 27.45253 | -105.92595 | 39310 ft | 487 kts | 118° |
| 2026-04-22 04:36 | 27.42234 | -105.85764 | 39299 ft | 486 kts | 118° |
| 2026-04-22 04:36 | 27.39234 | -105.78985 | 39304 ft | 485 kts | 118° |
| 2026-04-22 04:37 | 27.36227 | -105.72199 | 39305 ft | 484 kts | 118° |
| 2026-04-22 04:37 | 27.33213 | -105.65409 | 39313 ft | 485 kts | 118° |
| 2026-04-22 04:38 | 27.30197 | -105.58631 | 39305 ft | 485 kts | 118° |
| 2026-04-22 04:38 | 27.27200 | -105.51905 | 39296 ft | 484 kts | 118° |
| 2026-04-22 04:39 | 27.24184 | -105.45146 | 39304 ft | 484 kts | 118° |
| 2026-04-22 04:39 | 27.21171 | -105.38404 | 39300 ft | 484 kts | 118° |
| 2026-04-22 04:40 | 27.18149 | -105.31641 | 39293 ft | 484 kts | 119° |
| 2026-04-22 04:40 | 27.15138 | -105.24897 | 39294 ft | 484 kts | 119° |
| 2026-04-22 04:41 | 27.12125 | -105.18170 | 39273 ft | 484 kts | 119° |
| 2026-04-22 04:41 | 27.09078 | -105.11406 | 39287 ft | 486 kts | 119° |
| 2026-04-22 04:42 | 27.06048 | -105.04676 | 39266 ft | 487 kts | 119° |
| 2026-04-22 04:42 | 27.02986 | -104.97892 | 39255 ft | 486 kts | 119° |
| 2026-04-22 04:43 | 26.99941 | -104.91151 | 39276 ft | 486 kts | 119° |
| 2026-04-22 04:43 | 26.96881 | -104.84392 | 39276 ft | 486 kts | 119° |
| 2026-04-22 04:44 | 26.93824 | -104.77650 | 39263 ft | 485 kts | 119° |
| 2026-04-22 04:44 | 26.90770 | -104.70924 | 39268 ft | 486 kts | 119° |
| 2026-04-22 04:45 | 26.87705 | -104.64225 | 39272 ft | 484 kts | 119° |
| 2026-04-22 04:45 | 26.84635 | -104.57524 | 39274 ft | 485 kts | 118° |
| 2026-04-22 04:46 | 26.81582 | -104.50830 | 39283 ft | 485 kts | 118° |
| 2026-04-22 04:46 | 26.78528 | -104.44128 | 39274 ft | 485 kts | 119° |
| 2026-04-22 04:47 | 26.75445 | -104.37373 | 39254 ft | 486 kts | 119° |
| 2026-04-22 04:47 | 26.72662 | -104.30528 | 39250 ft | 485 kts | 112° |
| 2026-04-22 04:48 | 26.70303 | -104.23503 | 39228 ft | 484 kts | 111° |
| 2026-04-22 04:48 | 26.67960 | -104.16464 | 39225 ft | 483 kts | 111° |
| 2026-04-22 04:49 | 26.65615 | -104.09460 | 39217 ft | 483 kts | 111° |
| 2026-04-22 04:49 | 26.63254 | -104.02447 | 39206 ft | 483 kts | 111° |
| 2026-04-22 04:50 | 26.60881 | -103.95413 | 39202 ft | 484 kts | 112° |
| 2026-04-22 04:50 | 26.58521 | -103.88436 | 39216 ft | 484 kts | 111° |
| 2026-04-22 04:51 | 26.56145 | -103.81432 | 39218 ft | 483 kts | 112° |
| 2026-04-22 04:51 | 26.53763 | -103.74419 | 39194 ft | 484 kts | 112° |
| 2026-04-22 04:52 | 26.51385 | -103.67428 | 39198 ft | 483 kts | 112° |
| 2026-04-22 04:52 | 26.49006 | -103.60442 | 39187 ft | 483 kts | 112° |
| 2026-04-22 04:53 | 26.46607 | -103.53423 | 39197 ft | 483 kts | 112° |
| 2026-04-22 04:53 | 26.44216 | -103.46439 | 39201 ft | 483 kts | 112° |
| 2026-04-22 04:54 | 26.41817 | -103.39436 | 39219 ft | 483 kts | 112° |
| 2026-04-22 04:54 | 26.39427 | -103.32475 | 39217 ft | 483 kts | 112° |
| 2026-04-22 04:55 | 26.37050 | -103.25532 | 39234 ft | 483 kts | 112° |